Doss, TX (78618)

12:39 AM CST on February 14, 2016 (GMT -0600)
Hilda | | Change Station
CLOSE
Current Station
Personal Weather Station
Location: Mason, TX
Elevation: 1480 ft
Nearby Weather Stations

Elev 1480 ft 30.59 °N, 99.11 °W | Updated 11 seconds ago

Partly Cloudy
Partly Cloudy
57.7 °F
Feels Like 57.7 °F
N
11.2
Wind Variable Wind from WSW
Gusts 12.3 mph

Today
High -- | Low -- °F
--% Chance of Precip.
Yesterday
High -- | Low -- °F
Precip. -- in
Pressure 30.11 in
Visibility 10.0 miles
Clouds Scattered Clouds 1800 ft
Dew Point 52 °F
Humidity 82%
Rainfall 0.00 in
Snow Depth Not available.
7:18 AM 6:23 PM
Waxing Crescent, 38% visible
METAR KT82 140615Z AUTO 18007KT 10SM SCT018 12/09 A3011 RMK AO2 T01240092
Pressure 30.11 in
Visibility 10.0 miles
Clouds Scattered Clouds 1800 ft
Dew Point 52 °F
Humidity 82%
Rainfall 0.00 in
Snow Depth Not available.
7:18 AM 6:23 PM
Waxing Crescent, 38% visible
METAR KT82 140615Z AUTO 18007KT 10SM SCT018 12/09 A3011 RMK AO2 T01240092

10-Day Weather Forecast

Almanac

Astronomy

Feb. 14, 2016 Rise Set
Actual Time
Civil Twilight
Nautical Twilight
Astronomical Twilight
Moon
Length of Visible Light
Length of Day
Tomorrow will be .
, % of the Moon is Illuminated

Today's Extremes

State Highs State Lows

Community

WunderPhotos

Upload Photos

1,892,757 photos uploaded!

WunderBlog® & News

Nearby

Air Quality

  Air Quality AQ Index Pollutant
Not available.

Snow Depth

Station Depth Elevation

Earthquake Activity

City Distance Mag. Time & Date
Minimum magnitude displayed is 2.5.

Coastal Water Temperatures

Place Temperature

Stations

Nearby Weather Stations

Station Location Temp. Windchill Dew Point Humidity Wind Precip. Elev Updated Type
                   

Watches & Warnings

There are currently no watches in effect.